createdAt,value
2023-05-23T00:02:01.813Z,100.00
2023-05-23T00:05:03.591Z,100.00
2023-05-23T00:08:05.060Z,100.00
2023-05-23T00:11:06.429Z,100.00
2023-05-23T00:14:08.329Z,100.00
2023-05-23T00:17:10.946Z,100.00
2023-05-23T00:20:12.481Z,100.00
2023-05-23T00:23:18.988Z,100.00
2023-05-23T00:26:21.756Z,100.00
2023-05-23T00:29:23.163Z,100.00
2023-05-23T00:32:25.023Z,100.00
2023-05-23T00:35:26.450Z,100.00
2023-05-23T00:38:28.509Z,100.00
2023-05-23T00:41:30.576Z,100.00
2023-05-23T00:44:32.004Z,100.00
2023-05-23T00:47:33.425Z,100.00
2023-05-23T00:50:36.220Z,100.00
2023-05-23T00:53:37.656Z,100.00
2023-05-23T00:56:39.047Z,100.00
2023-05-23T00:59:40.785Z,100.00
2023-05-23T01:02:45.127Z,100.00
2023-05-23T01:05:46.748Z,100.00
2023-05-23T01:08:48.096Z,100.00
2023-05-23T01:11:52.216Z,100.00
2023-05-23T01:14:59.527Z,100.00
2023-05-23T01:18:10.623Z,100.00
2023-05-23T01:21:13.363Z,100.00
2023-05-23T01:24:22.413Z,100.00
2023-05-23T01:27:26.803Z,100.00
2023-05-23T01:30:28.235Z,100.00
2023-05-23T01:33:30.754Z,100.00
2023-05-23T01:36:35.070Z,100.00
2023-05-23T01:39:36.749Z,100.00
2023-05-23T01:42:38.132Z,100.00
2023-05-23T01:45:39.640Z,100.00
2023-05-23T01:48:41.197Z,100.00
2023-05-23T01:51:42.618Z,100.00
2023-05-23T01:54:43.989Z,100.00
2023-05-23T01:57:45.605Z,100.00
2023-05-23T02:00:47.075Z,100.00
2023-05-23T02:03:48.649Z,100.00
2023-05-23T02:06:50.126Z,100.00
2023-05-23T02:09:51.569Z,100.00
2023-05-23T02:12:52.977Z,100.00
2023-05-23T02:15:54.384Z,100.00
2023-05-23T02:18:59.352Z,100.00
2023-05-23T02:22:00.972Z,100.00
2023-05-23T02:25:02.375Z,100.00
2023-05-23T02:28:03.773Z,100.00
2023-05-23T02:31:05.169Z,100.00
2023-05-23T02:34:06.568Z,100.00
2023-05-23T02:37:07.957Z,100.00
2023-05-23T02:40:09.621Z,100.00
2023-05-23T02:43:11.021Z,100.00
2023-05-23T02:46:13.696Z,100.00
2023-05-23T02:49:15.200Z,100.00
2023-05-23T02:52:17.078Z,100.00
2023-05-23T02:55:18.497Z,100.00
2023-05-23T02:58:20.792Z,100.00
2023-05-23T03:01:22.289Z,100.00
2023-05-23T03:04:24.019Z,100.00
2023-05-23T03:07:28.464Z,100.00
2023-05-23T03:10:30.755Z,100.00
2023-05-23T03:13:32.299Z,100.00
2023-05-23T03:16:33.881Z,100.00
2023-05-23T03:19:36.773Z,100.00
2023-05-23T03:22:38.439Z,100.00
2023-05-23T03:25:40.132Z,100.00
2023-05-23T03:28:41.817Z,100.00
2023-05-23T03:31:43.365Z,100.00
2023-05-23T03:34:44.971Z,100.00
2023-05-23T03:37:46.525Z,100.00
2023-05-23T03:40:48.032Z,100.00
2023-05-23T03:43:49.533Z,100.00
2023-05-23T03:46:51.069Z,100.00
2023-05-23T03:49:52.870Z,100.00
2023-05-23T03:52:54.599Z,100.00
2023-05-23T03:55:56.150Z,100.00
2023-05-23T03:58:57.682Z,100.00
2023-05-23T04:02:00.549Z,100.00
2023-05-23T04:05:03.076Z,100.00
2023-05-23T04:08:04.651Z,100.00
2023-05-23T04:11:06.256Z,100.00
2023-05-23T04:14:08.114Z,100.00
2023-05-23T04:17:09.715Z,100.00
2023-05-23T04:20:11.829Z,100.00
2023-05-23T04:23:13.270Z,100.00
2023-05-23T04:26:14.776Z,100.00
2023-05-23T04:29:16.425Z,100.00
2023-05-23T04:32:19.442Z,100.00
2023-05-23T04:35:21.310Z,100.00
2023-05-23T04:38:25.105Z,100.00
2023-05-23T04:41:26.551Z,100.00
2023-05-23T04:44:30.364Z,100.00
2023-05-23T04:47:36.964Z,100.00
2023-05-23T04:50:40.621Z,100.00
2023-05-23T04:53:43.034Z,100.00
2023-05-23T04:56:44.621Z,100.00
2023-05-23T04:59:46.547Z,100.00
2023-05-23T05:02:48.273Z,100.00
2023-05-23T05:05:49.699Z,100.00
2023-05-23T05:08:51.276Z,100.00
2023-05-23T05:11:52.682Z,100.00
2023-05-23T05:14:54.084Z,100.00
2023-05-23T05:17:56.350Z,100.00
2023-05-23T05:20:58.590Z,100.00
2023-05-23T05:24:00.161Z,100.00
2023-05-23T05:27:01.591Z,100.00
2023-05-23T05:30:06.470Z,100.00
2023-05-23T05:33:08.017Z,100.00
2023-05-23T05:36:09.509Z,100.00
2023-05-23T05:39:10.915Z,100.00
2023-05-23T05:42:12.306Z,100.00
2023-05-23T05:45:13.751Z,100.00
2023-05-23T05:48:15.188Z,100.00
2023-05-23T05:51:17.534Z,100.00
2023-05-23T05:54:19.448Z,100.00
2023-05-23T05:57:20.913Z,100.00
2023-05-23T06:00:22.575Z,100.00
2023-05-23T06:03:24.775Z,100.00
2023-05-23T06:06:26.386Z,100.00
2023-05-23T06:09:27.799Z,100.00
2023-05-23T06:12:29.197Z,100.00
2023-05-23T06:15:30.651Z,100.00
2023-05-23T06:18:32.063Z,100.00
2023-05-23T06:21:33.541Z,100.00
2023-05-23T06:24:35.023Z,100.00
2023-05-23T06:27:36.940Z,100.00
2023-05-23T06:30:39.224Z,100.00
2023-05-23T06:33:40.924Z,100.00
2023-05-23T06:36:43.002Z,100.00
2023-05-23T06:39:44.489Z,100.00
2023-05-23T06:42:45.967Z,100.00
2023-05-23T06:45:47.764Z,100.00
2023-05-23T06:48:54.299Z,100.00
2023-05-23T06:52:00.869Z,100.00
2023-05-23T06:55:02.283Z,100.00
2023-05-23T06:58:06.939Z,100.00
2023-05-23T07:01:08.407Z,100.00
2023-05-23T07:04:09.875Z,100.00
2023-05-23T07:07:11.309Z,100.00
2023-05-23T07:10:13.077Z,100.00
2023-05-23T07:13:14.506Z,100.00
2023-05-23T07:16:16.163Z,100.00
2023-05-23T07:19:17.616Z,100.00
2023-05-23T07:22:19.142Z,100.00
2023-05-23T07:25:20.568Z,100.00
2023-05-23T07:28:22.255Z,100.00
2023-05-23T07:31:23.716Z,100.00
2023-05-23T07:34:26.802Z,100.00
2023-05-23T07:37:28.244Z,100.00
2023-05-23T07:40:29.703Z,100.00
2023-05-23T07:43:31.101Z,100.00
2023-05-23T07:46:32.587Z,100.00
2023-05-23T07:49:34.353Z,100.00
2023-05-23T07:52:36.317Z,100.00
2023-05-23T07:55:37.769Z,100.00
2023-05-23T07:58:39.177Z,100.00
2023-05-23T08:01:40.670Z,100.00
2023-05-23T08:04:42.211Z,100.00
2023-05-23T08:07:43.676Z,100.00
2023-05-23T08:10:45.772Z,100.00
2023-05-23T08:13:47.235Z,100.00
2023-05-23T08:16:49.119Z,100.00
2023-05-23T08:19:50.814Z,100.00
2023-05-23T08:22:52.896Z,100.00
2023-05-23T08:25:54.469Z,100.00
2023-05-23T08:28:56.039Z,100.00
2023-05-23T08:31:57.679Z,100.00
2023-05-23T08:34:59.189Z,100.00
2023-05-23T08:38:01.708Z,100.00
2023-05-23T08:41:03.172Z,100.00
2023-05-23T08:44:04.623Z,100.00
2023-05-23T08:47:06.019Z,100.00
2023-05-23T08:50:08.193Z,100.00
2023-05-23T08:53:10.423Z,100.00
2023-05-23T08:56:11.863Z,100.00
2023-05-23T08:59:13.287Z,100.00
2023-05-23T09:02:14.688Z,100.00
2023-05-23T09:05:16.170Z,100.00
2023-05-23T09:08:19.340Z,100.00
2023-05-23T09:11:22.001Z,100.00
2023-05-23T09:14:23.437Z,100.00
2023-05-23T09:17:24.878Z,100.00
2023-05-23T09:20:26.335Z,100.00
2023-05-23T09:23:31.268Z,100.00
2023-05-23T09:26:32.692Z,100.00
2023-05-23T09:29:38.490Z,100.00
2023-05-23T09:32:39.991Z,100.00
2023-05-23T09:35:45.203Z,100.00
2023-05-23T09:38:46.879Z,100.00
2023-05-23T09:41:48.742Z,100.00
2023-05-23T09:44:50.362Z,100.00
2023-05-23T09:47:52.291Z,100.00
2023-05-23T09:50:53.827Z,100.00
2023-05-23T09:53:57.032Z,100.00
2023-05-23T09:57:01.308Z,100.00
2023-05-23T10:00:06.465Z,100.00
2023-05-23T10:03:12.839Z,100.00
2023-05-23T10:06:18.588Z,100.00
2023-05-23T10:09:20.775Z,100.00
2023-05-23T10:12:22.183Z,100.00
2023-05-23T10:15:23.975Z,100.00
2023-05-23T10:18:35.073Z,100.00
2023-05-23T10:21:38.927Z,100.00
2023-05-23T10:24:40.405Z,100.00
2023-05-23T10:27:41.949Z,100.00
2023-05-23T10:30:43.468Z,100.00
2023-05-23T10:33:46.461Z,100.00
2023-05-23T10:36:54.115Z,100.00
2023-05-23T10:39:57.861Z,100.00
2023-05-23T10:43:02.789Z,100.00
2023-05-23T10:46:04.350Z,100.00
2023-05-23T10:49:05.821Z,100.00
2023-05-23T10:52:07.430Z,100.00
2023-05-23T10:55:15.413Z,100.00
2023-05-23T10:58:18.973Z,100.00
2023-05-23T11:01:20.820Z,100.00
2023-05-23T11:04:26.640Z,100.00
2023-05-23T11:07:32.041Z,100.00
2023-05-23T11:10:33.433Z,100.00
2023-05-23T11:13:53.201Z,100.00
2023-05-23T11:16:54.639Z,100.00
2023-05-23T11:19:57.064Z,100.00
2023-05-23T11:23:02.811Z,100.00
2023-05-23T11:26:04.342Z,100.00
2023-05-23T11:29:09.289Z,100.00
2023-05-23T11:32:15.991Z,100.00
2023-05-23T11:35:18.936Z,100.00
2023-05-23T11:38:20.423Z,100.00
2023-05-23T11:41:21.988Z,100.00
2023-05-23T11:44:23.512Z,100.00
2023-05-23T11:47:24.994Z,100.00
2023-05-23T11:50:26.461Z,100.00
2023-05-23T11:53:28.149Z,100.00
2023-05-23T11:56:29.550Z,100.00
2023-05-23T11:59:30.962Z,100.00
2023-05-23T12:02:32.362Z,100.00
2023-05-23T12:05:33.833Z,100.00
2023-05-23T12:08:35.359Z,100.00
2023-05-23T12:11:36.760Z,100.00
2023-05-23T12:14:44.360Z,100.00
2023-05-23T12:17:46.557Z,100.00
2023-05-23T12:20:53.808Z,100.00
2023-05-23T12:23:55.400Z,100.00
2023-05-23T12:27:00.220Z,100.00
2023-05-23T12:30:14.117Z,100.00
2023-05-23T12:33:16.060Z,100.00
2023-05-23T12:36:25.100Z,100.00
2023-05-23T12:39:28.227Z,100.00
2023-05-23T12:42:30.770Z,100.00
2023-05-23T12:45:32.249Z,100.00
2023-05-23T12:48:33.946Z,100.00
2023-05-23T12:51:35.516Z,100.00
2023-05-23T12:54:37.099Z,100.00
2023-05-23T12:57:38.690Z,100.00
2023-05-23T13:00:40.223Z,100.00
2023-05-23T13:03:41.707Z,100.00
2023-05-23T13:06:43.109Z,100.00
2023-05-23T13:09:46.553Z,100.00
2023-05-23T13:12:47.953Z,98.17
2023-05-23T13:15:51.095Z,95.59
2023-05-23T13:18:53.297Z,93.22
2023-05-23T13:21:54.746Z,92.16
2023-05-23T13:24:56.444Z,91.56
2023-05-23T13:27:57.965Z,92.52
2023-05-23T13:30:59.391Z,93.04
2023-05-23T13:34:01.086Z,91.90
2023-05-23T13:37:02.547Z,92.56
2023-05-23T13:40:04.260Z,93.87
2023-05-23T13:43:06.037Z,92.42
2023-05-23T13:46:07.521Z,90.49
2023-05-23T13:49:08.976Z,87.05
2023-05-23T13:52:10.397Z,89.97
2023-05-23T13:55:11.769Z,91.37
2023-05-23T13:58:13.209Z,92.94
2023-05-23T14:01:14.662Z,92.97
2023-05-23T14:04:16.070Z,94.30
2023-05-23T14:07:17.943Z,96.14
2023-05-23T14:10:19.348Z,97.39
2023-05-23T14:13:21.839Z,98.88
2023-05-23T14:16:23.354Z,98.72
2023-05-23T14:19:24.849Z,98.67
2023-05-23T14:22:26.584Z,100.00
2023-05-23T14:25:27.980Z,98.87
2023-05-23T14:28:29.454Z,100.00
2023-05-23T14:31:30.858Z,99.26
2023-05-23T14:34:32.302Z,99.08
2023-05-23T14:37:33.729Z,96.93
2023-05-23T14:40:35.169Z,96.13
2023-05-23T14:43:36.671Z,97.56
2023-05-23T14:46:38.220Z,99.50
2023-05-23T14:49:39.658Z,100.00
2023-05-23T14:52:41.808Z,100.00
2023-05-23T14:55:43.382Z,100.00
2023-05-23T14:58:45.898Z,100.00
2023-05-23T15:01:47.337Z,100.00
2023-05-23T15:04:48.779Z,100.00
2023-05-23T15:07:51.062Z,100.00
2023-05-23T15:10:52.445Z,96.46
2023-05-23T15:13:53.906Z,98.50
2023-05-23T15:16:55.804Z,98.12
2023-05-23T15:19:57.422Z,99.82
2023-05-23T15:22:58.813Z,97.15
2023-05-23T15:26:00.589Z,98.26
2023-05-23T15:29:01.984Z,98.61
2023-05-23T15:32:03.450Z,100.00
2023-05-23T15:35:05.098Z,100.00
2023-05-23T15:38:06.532Z,99.89
2023-05-23T15:41:07.940Z,100.00
2023-05-23T15:44:09.422Z,100.00
2023-05-23T15:47:11.587Z,100.00
2023-05-23T15:50:14.389Z,100.00
2023-05-23T15:53:15.970Z,99.49
2023-05-23T15:56:17.497Z,98.34
2023-05-23T15:59:18.881Z,95.75
2023-05-23T16:02:20.369Z,96.28
2023-05-23T16:05:21.905Z,99.56
2023-05-23T16:08:23.316Z,99.35
2023-05-23T16:11:24.691Z,97.75
2023-05-23T16:14:26.097Z,100.00
2023-05-23T16:17:27.491Z,99.62
2023-05-23T16:20:28.924Z,100.00
2023-05-23T16:23:30.595Z,100.00
2023-05-23T16:26:32.109Z,100.00
2023-05-23T16:29:33.589Z,100.00
2023-05-23T16:32:35.009Z,100.00
2023-05-23T16:35:36.439Z,100.00
2023-05-23T16:38:37.850Z,100.00
2023-05-23T16:41:39.241Z,100.00
2023-05-23T16:44:41.059Z,100.00
2023-05-23T16:47:42.589Z,100.00
2023-05-23T16:50:44.372Z,100.00
2023-05-23T16:53:45.924Z,100.00
2023-05-23T16:56:47.444Z,100.00
2023-05-23T16:59:48.895Z,100.00
2023-05-23T17:02:50.325Z,100.00
2023-05-23T17:05:51.762Z,100.00
2023-05-23T17:08:53.260Z,100.00
2023-05-23T17:11:54.694Z,100.00
2023-05-23T17:14:56.164Z,100.00
2023-05-23T17:17:57.614Z,100.00
2023-05-23T17:20:59.533Z,100.00
2023-05-23T17:24:00.989Z,100.00
2023-05-23T17:27:03.721Z,100.00
2023-05-23T17:30:05.642Z,100.00
2023-05-23T17:33:07.922Z,100.00
2023-05-23T17:36:09.410Z,100.00
2023-05-23T17:39:10.827Z,100.00
2023-05-23T17:42:12.751Z,100.00
2023-05-23T17:45:14.266Z,100.00
2023-05-23T17:48:15.761Z,100.00
2023-05-23T17:51:17.195Z,100.00
2023-05-23T17:54:18.603Z,100.00
2023-05-23T17:57:20.018Z,100.00
2023-05-23T18:00:21.583Z,100.00
2023-05-23T18:03:24.285Z,100.00
2023-05-23T18:06:27.018Z,100.00
2023-05-23T18:09:28.600Z,100.00
2023-05-23T18:12:30.362Z,100.00
2023-05-23T18:15:31.858Z,100.00
2023-05-23T18:18:33.518Z,100.00
2023-05-23T18:21:35.015Z,100.00
2023-05-23T18:24:36.593Z,100.00
2023-05-23T18:27:38.074Z,100.00
2023-05-23T18:30:39.705Z,100.00
2023-05-23T18:33:41.341Z,100.00
2023-05-23T18:36:43.105Z,100.00
2023-05-23T18:39:44.541Z,100.00
2023-05-23T18:42:47.342Z,100.00
2023-05-23T18:45:48.882Z,100.00
2023-05-23T18:48:51.055Z,100.00
2023-05-23T18:51:54.327Z,100.00
2023-05-23T18:54:55.946Z,100.00
2023-05-23T18:57:59.055Z,100.00
2023-05-23T19:01:03.703Z,100.00
2023-05-23T19:04:05.163Z,100.00
2023-05-23T19:07:07.584Z,100.00
2023-05-23T19:10:09.184Z,100.00
2023-05-23T19:13:10.668Z,100.00
2023-05-23T19:16:12.070Z,100.00
2023-05-23T19:19:14.523Z,100.00
2023-05-23T19:22:16.171Z,100.00
2023-05-23T19:25:17.600Z,100.00
2023-05-23T19:28:19.045Z,100.00
2023-05-23T19:31:20.480Z,100.00
2023-05-23T19:34:22.148Z,100.00
2023-05-23T19:37:23.607Z,100.00
2023-05-23T19:40:25.179Z,100.00
2023-05-23T19:43:26.758Z,100.00
2023-05-23T19:46:29.018Z,100.00
2023-05-23T19:49:30.630Z,100.00
2023-05-23T19:52:32.342Z,100.00
2023-05-23T19:55:33.740Z,100.00
2023-05-23T19:58:36.122Z,100.00
2023-05-23T20:01:37.574Z,100.00
2023-05-23T20:04:38.946Z,100.00
2023-05-23T20:07:40.344Z,100.00
2023-05-23T20:10:43.232Z,100.00
2023-05-23T20:13:44.933Z,100.00
2023-05-23T20:16:46.449Z,100.00
2023-05-23T20:19:47.859Z,100.00
2023-05-23T20:22:49.319Z,100.00
2023-05-23T20:25:51.692Z,100.00
2023-05-23T20:28:53.257Z,100.00
2023-05-23T20:31:54.766Z,100.00
2023-05-23T20:34:56.240Z,100.00
2023-05-23T20:38:00.232Z,100.00
2023-05-23T20:41:06.538Z,100.00
2023-05-23T20:44:12.405Z,100.00
2023-05-23T20:47:15.414Z,100.00
2023-05-23T20:50:19.026Z,100.00
2023-05-23T20:53:20.416Z,100.00
2023-05-23T20:56:22.586Z,100.00
2023-05-23T20:59:26.259Z,100.00
2023-05-23T21:02:27.817Z,100.00
2023-05-23T21:05:29.263Z,100.00
2023-05-23T21:08:33.048Z,100.00
2023-05-23T21:11:36.220Z,100.00
2023-05-23T21:14:37.627Z,100.00
2023-05-23T21:17:39.027Z,100.00
2023-05-23T21:20:40.612Z,100.00
2023-05-23T21:23:42.153Z,100.00
2023-05-23T21:26:43.640Z,100.00
2023-05-23T21:29:46.858Z,100.00
2023-05-23T21:32:48.963Z,100.00
2023-05-23T21:35:51.138Z,100.00
2023-05-23T21:38:52.515Z,100.00
2023-05-23T21:41:53.886Z,100.00
2023-05-23T21:44:55.309Z,100.00
2023-05-23T21:47:56.789Z,100.00
2023-05-23T21:50:58.229Z,100.00
2023-05-23T21:53:59.627Z,100.00
2023-05-23T21:57:01.225Z,100.00
2023-05-23T22:00:04.677Z,100.00
2023-05-23T22:03:06.242Z,100.00
2023-05-23T22:06:07.743Z,100.00
2023-05-23T22:09:11.511Z,100.00
2023-05-23T22:12:13.781Z,100.00
2023-05-23T22:15:15.249Z,100.00
2023-05-23T22:18:16.749Z,100.00
2023-05-23T22:21:18.151Z,100.00
2023-05-23T22:24:19.543Z,100.00
2023-05-23T22:27:21.350Z,100.00
2023-05-23T22:30:22.765Z,100.00
2023-05-23T22:33:24.323Z,100.00
2023-05-23T22:36:25.759Z,100.00
2023-05-23T22:39:27.225Z,100.00
2023-05-23T22:42:28.705Z,100.00
2023-05-23T22:45:30.198Z,100.00
2023-05-23T22:48:34.356Z,100.00
2023-05-23T22:51:35.865Z,100.00
2023-05-23T22:54:37.281Z,100.00
2023-05-23T22:57:38.711Z,100.00
2023-05-23T23:00:40.248Z,100.00
2023-05-23T23:03:41.860Z,100.00
2023-05-23T23:06:44.436Z,100.00
2023-05-23T23:09:46.065Z,100.00
2023-05-23T23:12:47.465Z,100.00
2023-05-23T23:15:50.206Z,100.00
2023-05-23T23:18:52.577Z,100.00
2023-05-23T23:21:53.991Z,100.00
2023-05-23T23:24:55.745Z,100.00
2023-05-23T23:27:57.137Z,100.00
2023-05-23T23:30:58.520Z,100.00
2023-05-23T23:33:59.972Z,100.00
2023-05-23T23:37:01.359Z,100.00
2023-05-23T23:40:02.758Z,100.00
2023-05-23T23:43:04.158Z,100.00
2023-05-23T23:46:05.580Z,100.00
2023-05-23T23:49:06.957Z,100.00
2023-05-23T23:52:08.912Z,100.00
2023-05-23T23:55:10.368Z,100.00
2023-05-23T23:58:11.835Z,100.00
